sensor_id;sensor_type;location;lat;lon;timestamp;P1;durP1;ratioP1;P2;durP2;ratioP2
45476;SDS011;31958;51.756;-2.556;2023-03-30T00:00:07;15.32;;;2.00;;
45476;SDS011;31958;51.756;-2.556;2023-03-30T00:02:46;10.77;;;2.10;;
45476;SDS011;31958;51.756;-2.556;2023-03-30T00:05:13;8.57;;;1.60;;
45476;SDS011;31958;51.756;-2.556;2023-03-30T00:07:39;16.40;;;1.73;;
45476;SDS011;31958;51.756;-2.556;2023-03-30T00:10:14;18.33;;;2.30;;
45476;SDS011;31958;51.756;-2.556;2023-03-30T00:12:41;9.05;;;1.85;;
45476;SDS011;31958;51.756;-2.556;2023-03-30T00:15:07;16.85;;;2.10;;
45476;SDS011;31958;51.756;-2.556;2023-03-30T00:17:34;13.02;;;1.75;;
45476;SDS011;31958;51.756;-2.556;2023-03-30T00:20:00;9.85;;;1.90;;
45476;SDS011;31958;51.756;-2.556;2023-03-30T00:22:27;12.93;;;2.13;;
45476;SDS011;31958;51.756;-2.556;2023-03-30T00:24:53;12.45;;;1.50;;
45476;SDS011;31958;51.756;-2.556;2023-03-30T00:27:18;13.45;;;2.38;;
45476;SDS011;31958;51.756;-2.556;2023-03-30T00:29:44;19.80;;;1.88;;
45476;SDS011;31958;51.756;-2.556;2023-03-30T00:32:09;15.48;;;2.33;;
45476;SDS011;31958;51.756;-2.556;2023-03-30T00:34:34;10.38;;;1.88;;
45476;SDS011;31958;51.756;-2.556;2023-03-30T00:37:00;23.88;;;2.75;;
45476;SDS011;31958;51.756;-2.556;2023-03-30T00:39:27;11.50;;;1.75;;
45476;SDS011;31958;51.756;-2.556;2023-03-30T00:41:52;15.50;;;2.10;;
45476;SDS011;31958;51.756;-2.556;2023-03-30T00:47:20;13.48;;;2.15;;
45476;SDS011;31958;51.756;-2.556;2023-03-30T00:49:46;15.75;;;1.77;;
45476;SDS011;31958;51.756;-2.556;2023-03-30T00:52:12;22.88;;;3.45;;
45476;SDS011;31958;51.756;-2.556;2023-03-30T00:54:37;18.92;;;2.60;;
45476;SDS011;31958;51.756;-2.556;2023-03-30T00:57:03;13.70;;;2.42;;
45476;SDS011;31958;51.756;-2.556;2023-03-30T00:59:29;15.93;;;2.90;;
45476;SDS011;31958;51.756;-2.556;2023-03-30T01:01:55;19.77;;;1.88;;
45476;SDS011;31958;51.756;-2.556;2023-03-30T01:04:20;16.27;;;2.60;;
45476;SDS011;31958;51.756;-2.556;2023-03-30T01:06:46;19.38;;;2.65;;
45476;SDS011;31958;51.756;-2.556;2023-03-30T01:09:13;12.48;;;1.85;;
45476;SDS011;31958;51.756;-2.556;2023-03-30T01:11:39;20.38;;;2.75;;
45476;SDS011;31958;51.756;-2.556;2023-03-30T01:14:05;11.68;;;2.17;;
45476;SDS011;31958;51.756;-2.556;2023-03-30T01:38:16;17.48;;;2.38;;
45476;SDS011;31958;51.756;-2.556;2023-03-30T01:41:05;16.08;;;2.72;;
45476;SDS011;31958;51.756;-2.556;2023-03-30T01:43:37;18.17;;;2.22;;
45476;SDS011;31958;51.756;-2.556;2023-03-30T01:46:24;20.13;;;2.05;;
45476;SDS011;31958;51.756;-2.556;2023-03-30T01:49:04;14.40;;;1.90;;
45476;SDS011;31958;51.756;-2.556;2023-03-30T01:51:46;13.77;;;2.13;;
45476;SDS011;31958;51.756;-2.556;2023-03-30T01:54:29;21.73;;;2.22;;
45476;SDS011;31958;51.756;-2.556;2023-03-30T01:59:50;18.50;;;2.63;;
45476;SDS011;31958;51.756;-2.556;2023-03-30T02:02:18;17.20;;;2.58;;
45476;SDS011;31958;51.756;-2.556;2023-03-30T02:04:46;14.35;;;1.85;;
45476;SDS011;31958;51.756;-2.556;2023-03-30T02:07:16;21.83;;;2.63;;
45476;SDS011;31958;51.756;-2.556;2023-03-30T02:09:45;13.30;;;1.83;;
45476;SDS011;31958;51.756;-2.556;2023-03-30T02:12:12;21.25;;;2.47;;
45476;SDS011;31958;51.756;-2.556;2023-03-30T02:14:38;19.77;;;3.15;;
45476;SDS011;31958;51.756;-2.556;2023-03-30T02:17:23;18.50;;;2.60;;
45476;SDS011;31958;51.756;-2.556;2023-03-30T02:19:53;16.45;;;1.85;;
45476;SDS011;31958;51.756;-2.556;2023-03-30T02:22:21;18.17;;;2.42;;
45476;SDS011;31958;51.756;-2.556;2023-03-30T02:24:48;24.70;;;2.60;;
45476;SDS011;31958;51.756;-2.556;2023-03-30T02:27:15;29.20;;;2.72;;
45476;SDS011;31958;51.756;-2.556;2023-03-30T02:29:41;19.85;;;3.20;;
45476;SDS011;31958;51.756;-2.556;2023-03-30T02:32:16;17.95;;;2.20;;
45476;SDS011;31958;51.756;-2.556;2023-03-30T02:37:31;23.13;;;2.30;;
45476;SDS011;31958;51.756;-2.556;2023-03-30T02:45:49;26.85;;;2.88;;
45476;SDS011;31958;51.756;-2.556;2023-03-30T02:51:29;18.80;;;2.60;;
45476;SDS011;31958;51.756;-2.556;2023-03-30T02:59:48;18.52;;;2.70;;
45476;SDS011;31958;51.756;-2.556;2023-03-30T03:02:20;21.25;;;2.75;;
45476;SDS011;31958;51.756;-2.556;2023-03-30T03:04:49;18.70;;;3.30;;
45476;SDS011;31958;51.756;-2.556;2023-03-30T03:07:17;22.73;;;2.85;;
45476;SDS011;31958;51.756;-2.556;2023-03-30T03:09:42;13.82;;;2.53;;
45476;SDS011;31958;51.756;-2.556;2023-03-30T03:12:08;20.55;;;2.75;;
45476;SDS011;31958;51.756;-2.556;2023-03-30T03:14:33;21.95;;;3.20;;
45476;SDS011;31958;51.756;-2.556;2023-03-30T03:16:58;23.65;;;3.28;;
45476;SDS011;31958;51.756;-2.556;2023-03-30T03:19:24;29.17;;;3.50;;
45476;SDS011;31958;51.756;-2.556;2023-03-30T03:21:49;24.67;;;2.88;;
45476;SDS011;31958;51.756;-2.556;2023-03-30T03:24:15;33.78;;;3.13;;
45476;SDS011;31958;51.756;-2.556;2023-03-30T03:26:42;29.30;;;3.70;;
45476;SDS011;31958;51.756;-2.556;2023-03-30T03:29:08;31.50;;;3.15;;
45476;SDS011;31958;51.756;-2.556;2023-03-30T03:31:34;28.73;;;4.15;;
45476;SDS011;31958;51.756;-2.556;2023-03-30T03:34:00;19.77;;;3.72;;
45476;SDS011;31958;51.756;-2.556;2023-03-30T03:36:25;31.90;;;3.22;;
45476;SDS011;31958;51.756;-2.556;2023-03-30T03:38:51;28.23;;;3.25;;
45476;SDS011;31958;51.756;-2.556;2023-03-30T03:41:16;20.33;;;3.13;;
45476;SDS011;31958;51.756;-2.556;2023-03-30T03:43:42;19.45;;;2.60;;
45476;SDS011;31958;51.756;-2.556;2023-03-30T03:46:07;26.95;;;3.03;;
45476;SDS011;31958;51.756;-2.556;2023-03-30T03:48:33;21.40;;;2.67;;
45476;SDS011;31958;51.756;-2.556;2023-03-30T03:50:58;27.65;;;3.50;;
45476;SDS011;31958;51.756;-2.556;2023-03-30T03:53:25;21.20;;;2.45;;
45476;SDS011;31958;51.756;-2.556;2023-03-30T03:55:51;26.20;;;3.72;;
45476;SDS011;31958;51.756;-2.556;2023-03-30T03:58:17;24.90;;;3.45;;
45476;SDS011;31958;51.756;-2.556;2023-03-30T04:00:43;38.50;;;4.40;;
45476;SDS011;31958;51.756;-2.556;2023-03-30T04:03:08;20.13;;;2.20;;
45476;SDS011;31958;51.756;-2.556;2023-03-30T04:05:36;37.58;;;3.72;;
45476;SDS011;31958;51.756;-2.556;2023-03-30T04:08:01;23.55;;;4.10;;
45476;SDS011;31958;51.756;-2.556;2023-03-30T04:10:27;23.67;;;3.30;;
45476;SDS011;31958;51.756;-2.556;2023-03-30T04:12:55;29.52;;;3.55;;
45476;SDS011;31958;51.756;-2.556;2023-03-30T04:15:21;28.30;;;3.88;;
45476;SDS011;31958;51.756;-2.556;2023-03-30T04:17:47;31.45;;;3.35;;
45476;SDS011;31958;51.756;-2.556;2023-03-30T04:20:14;26.35;;;3.65;;
45476;SDS011;31958;51.756;-2.556;2023-03-30T04:22:39;28.15;;;3.30;;
45476;SDS011;31958;51.756;-2.556;2023-03-30T04:25:10;18.30;;;2.97;;
45476;SDS011;31958;51.756;-2.556;2023-03-30T04:27:38;20.65;;;3.22;;
45476;SDS011;31958;51.756;-2.556;2023-03-30T04:30:06;29.98;;;4.50;;
45476;SDS011;31958;51.756;-2.556;2023-03-30T04:32:33;23.42;;;3.65;;
45476;SDS011;31958;51.756;-2.556;2023-03-30T04:34:59;37.80;;;3.80;;
45476;SDS011;31958;51.756;-2.556;2023-03-30T04:37:25;22.42;;;2.60;;
45476;SDS011;31958;51.756;-2.556;2023-03-30T04:39:58;25.17;;;3.03;;
45476;SDS011;31958;51.756;-2.556;2023-03-30T04:42:24;28.77;;;3.08;;
45476;SDS011;31958;51.756;-2.556;2023-03-30T04:44:57;27.42;;;3.17;;
45476;SDS011;31958;51.756;-2.556;2023-03-30T04:47:24;19.15;;;4.38;;
45476;SDS011;31958;51.756;-2.556;2023-03-30T04:49:50;19.77;;;2.67;;
45476;SDS011;31958;51.756;-2.556;2023-03-30T04:52:16;26.42;;;3.20;;
45476;SDS011;31958;51.756;-2.556;2023-03-30T04:54:42;24.83;;;3.05;;
45476;SDS011;31958;51.756;-2.556;2023-03-30T04:57:07;31.25;;;3.90;;
45476;SDS011;31958;51.756;-2.556;2023-03-30T04:59:32;27.38;;;3.40;;
45476;SDS011;31958;51.756;-2.556;2023-03-30T05:01:58;24.92;;;4.28;;
45476;SDS011;31958;51.756;-2.556;2023-03-30T05:04:23;33.80;;;3.67;;
45476;SDS011;31958;51.756;-2.556;2023-03-30T05:06:49;28.83;;;3.95;;
45476;SDS011;31958;51.756;-2.556;2023-03-30T05:09:14;26.40;;;3.20;;
45476;SDS011;31958;51.756;-2.556;2023-03-30T05:11:40;24.50;;;3.88;;
45476;SDS011;31958;51.756;-2.556;2023-03-30T05:14:05;23.08;;;3.28;;
45476;SDS011;31958;51.756;-2.556;2023-03-30T05:16:31;19.85;;;2.63;;
45476;SDS011;31958;51.756;-2.556;2023-03-30T05:18:56;18.77;;;2.15;;
45476;SDS011;31958;51.756;-2.556;2023-03-30T05:21:22;28.08;;;3.67;;
45476;SDS011;31958;51.756;-2.556;2023-03-30T05:23:47;25.85;;;4.63;;
45476;SDS011;31958;51.756;-2.556;2023-03-30T05:26:13;16.40;;;2.60;;
45476;SDS011;31958;51.756;-2.556;2023-03-30T05:28:38;28.55;;;3.13;;
45476;SDS011;31958;51.756;-2.556;2023-03-30T05:31:04;23.63;;;4.20;;
45476;SDS011;31958;51.756;-2.556;2023-03-30T05:33:30;25.30;;;3.72;;
45476;SDS011;31958;51.756;-2.556;2023-03-30T05:35:56;26.42;;;3.90;;
45476;SDS011;31958;51.756;-2.556;2023-03-30T05:38:21;21.98;;;3.63;;
45476;SDS011;31958;51.756;-2.556;2023-03-30T05:40:50;31.58;;;5.82;;
45476;SDS011;31958;51.756;-2.556;2023-03-30T05:43:16;22.10;;;4.63;;
45476;SDS011;31958;51.756;-2.556;2023-03-30T05:45:42;24.42;;;3.67;;
45476;SDS011;31958;51.756;-2.556;2023-03-30T05:48:08;18.17;;;2.72;;
45476;SDS011;31958;51.756;-2.556;2023-03-30T05:50:33;21.92;;;2.88;;
45476;SDS011;31958;51.756;-2.556;2023-03-30T05:52:59;23.42;;;3.20;;
45476;SDS011;31958;51.756;-2.556;2023-03-30T05:55:24;21.85;;;2.97;;
45476;SDS011;31958;51.756;-2.556;2023-03-30T05:57:50;22.45;;;2.95;;
45476;SDS011;31958;51.756;-2.556;2023-03-30T06:00:15;25.30;;;3.55;;
45476;SDS011;31958;51.756;-2.556;2023-03-30T06:02:41;24.63;;;3.25;;
45476;SDS011;31958;51.756;-2.556;2023-03-30T06:05:06;20.83;;;2.90;;
45476;SDS011;31958;51.756;-2.556;2023-03-30T06:07:32;22.45;;;2.85;;
45476;SDS011;31958;51.756;-2.556;2023-03-30T06:09:58;26.67;;;2.95;;
45476;SDS011;31958;51.756;-2.556;2023-03-30T06:12:25;16.35;;;3.35;;
45476;SDS011;31958;51.756;-2.556;2023-03-30T06:14:51;26.40;;;3.15;;
45476;SDS011;31958;51.756;-2.556;2023-03-30T06:17:16;25.15;;;3.72;;
45476;SDS011;31958;51.756;-2.556;2023-03-30T06:19:41;33.25;;;4.68;;
45476;SDS011;31958;51.756;-2.556;2023-03-30T06:22:07;36.33;;;4.68;;
45476;SDS011;31958;51.756;-2.556;2023-03-30T06:24:33;27.38;;;3.25;;
45476;SDS011;31958;51.756;-2.556;2023-03-30T06:26:58;35.30;;;3.78;;
45476;SDS011;31958;51.756;-2.556;2023-03-30T06:29:25;24.52;;;3.60;;
45476;SDS011;31958;51.756;-2.556;2023-03-30T06:31:51;26.17;;;2.60;;
45476;SDS011;31958;51.756;-2.556;2023-03-30T06:34:17;24.30;;;3.38;;
45476;SDS011;31958;51.756;-2.556;2023-03-30T06:36:42;24.85;;;2.45;;
45476;SDS011;31958;51.756;-2.556;2023-03-30T06:39:10;22.38;;;2.60;;
45476;SDS011;31958;51.756;-2.556;2023-03-30T06:41:35;20.42;;;2.88;;
45476;SDS011;31958;51.756;-2.556;2023-03-30T06:44:01;25.35;;;3.67;;
45476;SDS011;31958;51.756;-2.556;2023-03-30T06:46:26;29.73;;;3.50;;
45476;SDS011;31958;51.756;-2.556;2023-03-30T06:48:52;30.67;;;3.05;;
45476;SDS011;31958;51.756;-2.556;2023-03-30T06:51:17;21.83;;;3.05;;
45476;SDS011;31958;51.756;-2.556;2023-03-30T06:53:43;20.50;;;2.47;;
45476;SDS011;31958;51.756;-2.556;2023-03-30T06:56:09;11.35;;;2.22;;
45476;SDS011;31958;51.756;-2.556;2023-03-30T06:58:35;22.42;;;3.10;;
45476;SDS011;31958;51.756;-2.556;2023-03-30T07:01:10;31.42;;;2.88;;
45476;SDS011;31958;51.756;-2.556;2023-03-30T07:03:37;21.90;;;4.45;;
45476;SDS011;31958;51.756;-2.556;2023-03-30T07:06:03;18.75;;;3.17;;
45476;SDS011;31958;51.756;-2.556;2023-03-30T07:08:29;25.63;;;3.50;;
45476;SDS011;31958;51.756;-2.556;2023-03-30T07:10:54;21.35;;;3.08;;
45476;SDS011;31958;51.756;-2.556;2023-03-30T07:13:20;24.08;;;3.10;;
45476;SDS011;31958;51.756;-2.556;2023-03-30T07:15:45;21.38;;;3.30;;
45476;SDS011;31958;51.756;-2.556;2023-03-30T07:18:11;28.85;;;4.25;;
45476;SDS011;31958;51.756;-2.556;2023-03-30T07:20:37;20.40;;;3.03;;
45476;SDS011;31958;51.756;-2.556;2023-03-30T07:23:03;32.33;;;3.92;;
45476;SDS011;31958;51.756;-2.556;2023-03-30T07:25:28;19.92;;;3.20;;
45476;SDS011;31958;51.756;-2.556;2023-03-30T07:27:53;29.65;;;3.60;;
45476;SDS011;31958;51.756;-2.556;2023-03-30T07:30:19;25.85;;;4.32;;
45476;SDS011;31958;51.756;-2.556;2023-03-30T07:32:46;25.58;;;3.63;;
45476;SDS011;31958;51.756;-2.556;2023-03-30T07:35:14;39.70;;;4.93;;
45476;SDS011;31958;51.756;-2.556;2023-03-30T07:37:40;30.48;;;4.93;;
45476;SDS011;31958;51.756;-2.556;2023-03-30T07:40:07;29.25;;;4.15;;
45476;SDS011;31958;51.756;-2.556;2023-03-30T07:42:33;22.88;;;3.53;;
45476;SDS011;31958;51.756;-2.556;2023-03-30T07:44:58;23.45;;;3.88;;
45476;SDS011;31958;51.756;-2.556;2023-03-30T07:47:23;42.78;;;5.70;;
45476;SDS011;31958;51.756;-2.556;2023-03-30T07:49:50;29.33;;;3.58;;
45476;SDS011;31958;51.756;-2.556;2023-03-30T07:52:16;25.20;;;3.35;;
45476;SDS011;31958;51.756;-2.556;2023-03-30T07:54:41;24.33;;;3.08;;
45476;SDS011;31958;51.756;-2.556;2023-03-30T07:57:08;25.73;;;4.30;;
45476;SDS011;31958;51.756;-2.556;2023-03-30T07:59:34;17.90;;;3.40;;
45476;SDS011;31958;51.756;-2.556;2023-03-30T08:02:00;33.17;;;4.05;;
45476;SDS011;31958;51.756;-2.556;2023-03-30T08:04:26;24.85;;;3.50;;
45476;SDS011;31958;51.756;-2.556;2023-03-30T08:06:52;27.77;;;3.95;;
45476;SDS011;31958;51.756;-2.556;2023-03-30T08:09:18;23.27;;;3.85;;
45476;SDS011;31958;51.756;-2.556;2023-03-30T08:11:43;33.13;;;4.78;;
45476;SDS011;31958;51.756;-2.556;2023-03-30T08:14:09;24.63;;;4.07;;
45476;SDS011;31958;51.756;-2.556;2023-03-30T08:16:35;26.45;;;4.03;;
45476;SDS011;31958;51.756;-2.556;2023-03-30T08:19:01;32.15;;;4.90;;
45476;SDS011;31958;51.756;-2.556;2023-03-30T08:21:27;23.55;;;3.33;;
45476;SDS011;31958;51.756;-2.556;2023-03-30T08:23:53;25.25;;;3.28;;
45476;SDS011;31958;51.756;-2.556;2023-03-30T08:26:21;29.67;;;5.30;;
45476;SDS011;31958;51.756;-2.556;2023-03-30T08:28:47;20.88;;;3.95;;
45476;SDS011;31958;51.756;-2.556;2023-03-30T08:31:13;27.55;;;4.20;;
45476;SDS011;31958;51.756;-2.556;2023-03-30T08:33:42;29.08;;;3.78;;
45476;SDS011;31958;51.756;-2.556;2023-03-30T08:36:08;23.25;;;4.18;;
45476;SDS011;31958;51.756;-2.556;2023-03-30T08:38:34;25.17;;;4.38;;
45476;SDS011;31958;51.756;-2.556;2023-03-30T08:41:00;27.10;;;3.95;;
45476;SDS011;31958;51.756;-2.556;2023-03-30T08:46:16;30.15;;;4.57;;
45476;SDS011;31958;51.756;-2.556;2023-03-30T08:48:43;21.67;;;3.78;;
45476;SDS011;31958;51.756;-2.556;2023-03-30T08:51:28;22.48;;;3.90;;
45476;SDS011;31958;51.756;-2.556;2023-03-30T08:53:56;20.80;;;3.67;;
45476;SDS011;31958;51.756;-2.556;2023-03-30T08:56:27;27.08;;;4.00;;
45476;SDS011;31958;51.756;-2.556;2023-03-30T09:06:59;40.22;;;4.35;;
45476;SDS011;31958;51.756;-2.556;2023-03-30T09:09:31;28.77;;;4.28;;
45476;SDS011;31958;51.756;-2.556;2023-03-30T09:12:07;27.05;;;4.32;;
45476;SDS011;31958;51.756;-2.556;2023-03-30T09:14:41;26.67;;;4.38;;
45476;SDS011;31958;51.756;-2.556;2023-03-30T09:17:15;25.20;;;3.95;;
45476;SDS011;31958;51.756;-2.556;2023-03-30T09:22:29;35.80;;;4.70;;
45476;SDS011;31958;51.756;-2.556;2023-03-30T09:24:58;29.17;;;3.78;;
45476;SDS011;31958;51.756;-2.556;2023-03-30T09:27:40;18.98;;;3.58;;
45476;SDS011;31958;51.756;-2.556;2023-03-30T09:30:21;26.13;;;3.72;;
45476;SDS011;31958;51.756;-2.556;2023-03-30T09:32:57;20.88;;;3.55;;
45476;SDS011;31958;51.756;-2.556;2023-03-30T09:35:33;30.10;;;4.90;;
45476;SDS011;31958;51.756;-2.556;2023-03-30T09:38:02;22.05;;;3.60;;
45476;SDS011;31958;51.756;-2.556;2023-03-30T09:45:52;26.15;;;3.42;;
45476;SDS011;31958;51.756;-2.556;2023-03-30T09:48:19;28.67;;;4.03;;
45476;SDS011;31958;51.756;-2.556;2023-03-30T09:50:45;23.75;;;3.80;;
45476;SDS011;31958;51.756;-2.556;2023-03-30T09:55:45;22.98;;;4.13;;
45476;SDS011;31958;51.756;-2.556;2023-03-30T09:58:25;23.52;;;4.03;;
45476;SDS011;31958;51.756;-2.556;2023-03-30T10:03:31;28.35;;;3.60;;
45476;SDS011;31958;51.756;-2.556;2023-03-30T10:11:31;28.17;;;3.90;;
45476;SDS011;31958;51.756;-2.556;2023-03-30T10:16:57;20.92;;;4.40;;
45476;SDS011;31958;51.756;-2.556;2023-03-30T10:19:23;24.30;;;3.95;;
45476;SDS011;31958;51.756;-2.556;2023-03-30T10:21:51;21.45;;;3.42;;
45476;SDS011;31958;51.756;-2.556;2023-03-30T10:24:23;19.73;;;3.40;;
45476;SDS011;31958;51.756;-2.556;2023-03-30T10:26:51;23.95;;;4.07;;
45476;SDS011;31958;51.756;-2.556;2023-03-30T10:29:20;17.98;;;3.10;;
45476;SDS011;31958;51.756;-2.556;2023-03-30T10:31:47;26.25;;;3.60;;
45476;SDS011;31958;51.756;-2.556;2023-03-30T10:34:44;21.92;;;3.58;;
45476;SDS011;31958;51.756;-2.556;2023-03-30T10:37:10;22.80;;;4.82;;
45476;SDS011;31958;51.756;-2.556;2023-03-30T10:39:39;28.17;;;5.18;;
45476;SDS011;31958;51.756;-2.556;2023-03-30T10:42:06;26.05;;;3.70;;
45476;SDS011;31958;51.756;-2.556;2023-03-30T10:44:40;29.30;;;4.07;;
45476;SDS011;31958;51.756;-2.556;2023-03-30T10:52:16;20.63;;;3.55;;
45476;SDS011;31958;51.756;-2.556;2023-03-30T10:54:49;22.02;;;3.78;;
45476;SDS011;31958;51.756;-2.556;2023-03-30T10:57:19;27.10;;;3.90;;
45476;SDS011;31958;51.756;-2.556;2023-03-30T11:02:47;26.10;;;4.05;;
45476;SDS011;31958;51.756;-2.556;2023-03-30T11:05:21;25.17;;;4.63;;
45476;SDS011;31958;51.756;-2.556;2023-03-30T11:07:55;20.85;;;4.35;;
45476;SDS011;31958;51.756;-2.556;2023-03-30T11:10:26;23.50;;;3.83;;
45476;SDS011;31958;51.756;-2.556;2023-03-30T11:12:59;22.67;;;3.10;;
45476;SDS011;31958;51.756;-2.556;2023-03-30T11:15:29;24.85;;;3.63;;
45476;SDS011;31958;51.756;-2.556;2023-03-30T11:20:46;29.05;;;4.50;;
45476;SDS011;31958;51.756;-2.556;2023-03-30T11:28:34;22.98;;;4.10;;
45476;SDS011;31958;51.756;-2.556;2023-03-30T11:31:02;19.35;;;3.42;;
45476;SDS011;31958;51.756;-2.556;2023-03-30T11:33:38;21.23;;;3.85;;
45476;SDS011;31958;51.756;-2.556;2023-03-30T11:39:10;25.83;;;4.07;;
45476;SDS011;31958;51.756;-2.556;2023-03-30T11:41:43;21.23;;;3.25;;
45476;SDS011;31958;51.756;-2.556;2023-03-30T11:44:12;23.70;;;3.28;;
45476;SDS011;31958;51.756;-2.556;2023-03-30T11:52:06;19.30;;;3.53;;
45476;SDS011;31958;51.756;-2.556;2023-03-30T12:07:34;18.23;;;3.70;;
45476;SDS011;31958;51.756;-2.556;2023-03-30T12:10:10;14.60;;;2.80;;
45476;SDS011;31958;51.756;-2.556;2023-03-30T12:12:40;20.45;;;3.88;;
45476;SDS011;31958;51.756;-2.556;2023-03-30T12:18:10;16.38;;;2.83;;
45476;SDS011;31958;51.756;-2.556;2023-03-30T12:26:28;12.50;;;2.13;;
45476;SDS011;31958;51.756;-2.556;2023-03-30T12:29:06;19.95;;;3.78;;
45476;SDS011;31958;51.756;-2.556;2023-03-30T12:32:02;18.90;;;3.45;;
45476;SDS011;31958;51.756;-2.556;2023-03-30T12:34:34;15.55;;;2.50;;
45476;SDS011;31958;51.756;-2.556;2023-03-30T12:39:57;22.98;;;3.38;;
45476;SDS011;31958;51.756;-2.556;2023-03-30T12:42:30;16.27;;;2.90;;
45476;SDS011;31958;51.756;-2.556;2023-03-30T12:56:08;16.30;;;2.78;;
45476;SDS011;31958;51.756;-2.556;2023-03-30T12:58:56;18.67;;;2.70;;
45476;SDS011;31958;51.756;-2.556;2023-03-30T13:04:14;12.07;;;2.30;;
45476;SDS011;31958;51.756;-2.556;2023-03-30T13:19:25;22.27;;;3.75;;
45476;SDS011;31958;51.756;-2.556;2023-03-30T13:22:16;10.65;;;2.55;;
45476;SDS011;31958;51.756;-2.556;2023-03-30T13:24:51;18.55;;;3.65;;
45476;SDS011;31958;51.756;-2.556;2023-03-30T13:30:16;20.52;;;3.50;;
45476;SDS011;31958;51.756;-2.556;2023-03-30T13:35:46;8.82;;;2.00;;
45476;SDS011;31958;51.756;-2.556;2023-03-30T13:51:37;14.02;;;2.25;;
45476;SDS011;31958;51.756;-2.556;2023-03-30T13:54:05;14.77;;;2.47;;
45476;SDS011;31958;51.756;-2.556;2023-03-30T13:56:33;11.85;;;2.13;;
45476;SDS011;31958;51.756;-2.556;2023-03-30T13:59:09;10.90;;;2.22;;
45476;SDS011;31958;51.756;-2.556;2023-03-30T14:01:37;13.70;;;2.00;;
45476;SDS011;31958;51.756;-2.556;2023-03-30T14:04:03;16.33;;;3.42;;
45476;SDS011;31958;51.756;-2.556;2023-03-30T14:06:30;15.63;;;2.55;;
45476;SDS011;31958;51.756;-2.556;2023-03-30T14:11:34;21.05;;;2.78;;
45476;SDS011;31958;51.756;-2.556;2023-03-30T14:14:02;16.60;;;2.35;;
45476;SDS011;31958;51.756;-2.556;2023-03-30T14:16:32;12.82;;;1.90;;
45476;SDS011;31958;51.756;-2.556;2023-03-30T14:19:08;16.80;;;3.38;;
45476;SDS011;31958;51.756;-2.556;2023-03-30T14:21:41;13.32;;;2.35;;
45476;SDS011;31958;51.756;-2.556;2023-03-30T14:24:09;12.27;;;2.05;;
45476;SDS011;31958;51.756;-2.556;2023-03-30T14:26:38;11.65;;;2.00;;
45476;SDS011;31958;51.756;-2.556;2023-03-30T14:29:06;11.30;;;2.08;;
45476;SDS011;31958;51.756;-2.556;2023-03-30T14:31:38;13.98;;;2.58;;
45476;SDS011;31958;51.756;-2.556;2023-03-30T14:36:50;16.30;;;2.92;;
45476;SDS011;31958;51.756;-2.556;2023-03-30T14:39:17;19.42;;;2.90;;
45476;SDS011;31958;51.756;-2.556;2023-03-30T14:41:46;14.55;;;2.15;;
45476;SDS011;31958;51.756;-2.556;2023-03-30T14:44:11;16.38;;;2.55;;
45476;SDS011;31958;51.756;-2.556;2023-03-30T14:49:07;12.05;;;2.67;;
45476;SDS011;31958;51.756;-2.556;2023-03-30T14:51:36;11.30;;;2.00;;
45476;SDS011;31958;51.756;-2.556;2023-03-30T14:54:04;7.95;;;1.85;;
45476;SDS011;31958;51.756;-2.556;2023-03-30T14:56:30;14.77;;;2.30;;
45476;SDS011;31958;51.756;-2.556;2023-03-30T14:58:55;17.33;;;2.45;;
45476;SDS011;31958;51.756;-2.556;2023-03-30T15:01:26;13.38;;;2.15;;
45476;SDS011;31958;51.756;-2.556;2023-03-30T15:04:00;28.45;;;2.60;;
45476;SDS011;31958;51.756;-2.556;2023-03-30T15:06:29;15.40;;;2.92;;
45476;SDS011;31958;51.756;-2.556;2023-03-30T15:08:58;14.35;;;2.97;;
45476;SDS011;31958;51.756;-2.556;2023-03-30T15:11:25;13.68;;;2.33;;
45476;SDS011;31958;51.756;-2.556;2023-03-30T15:13:52;23.15;;;2.92;;
45476;SDS011;31958;51.756;-2.556;2023-03-30T15:16:22;27.38;;;3.85;;
45476;SDS011;31958;51.756;-2.556;2023-03-30T15:18:51;20.92;;;3.35;;
45476;SDS011;31958;51.756;-2.556;2023-03-30T15:21:17;26.48;;;4.22;;
45476;SDS011;31958;51.756;-2.556;2023-03-30T15:23:44;28.60;;;4.43;;
45476;SDS011;31958;51.756;-2.556;2023-03-30T15:26:10;19.83;;;3.25;;
45476;SDS011;31958;51.756;-2.556;2023-03-30T15:28:55;28.33;;;4.55;;
45476;SDS011;31958;51.756;-2.556;2023-03-30T15:31:21;25.40;;;3.47;;
45476;SDS011;31958;51.756;-2.556;2023-03-30T15:33:51;22.40;;;3.60;;
45476;SDS011;31958;51.756;-2.556;2023-03-30T15:38:53;23.90;;;4.00;;
45476;SDS011;31958;51.756;-2.556;2023-03-30T15:41:21;21.80;;;3.42;;
45476;SDS011;31958;51.756;-2.556;2023-03-30T15:43:51;29.08;;;3.85;;
45476;SDS011;31958;51.756;-2.556;2023-03-30T15:48:49;26.20;;;3.83;;
45476;SDS011;31958;51.756;-2.556;2023-03-30T15:53:49;28.63;;;3.72;;
45476;SDS011;31958;51.756;-2.556;2023-03-30T15:56:26;26.27;;;3.25;;
45476;SDS011;31958;51.756;-2.556;2023-03-30T15:58:54;20.83;;;2.78;;
45476;SDS011;31958;51.756;-2.556;2023-03-30T16:01:21;25.95;;;3.53;;
45476;SDS011;31958;51.756;-2.556;2023-03-30T16:03:54;22.98;;;4.40;;
45476;SDS011;31958;51.756;-2.556;2023-03-30T16:06:21;25.48;;;4.35;;
45476;SDS011;31958;51.756;-2.556;2023-03-30T16:08:47;22.25;;;3.97;;
45476;SDS011;31958;51.756;-2.556;2023-03-30T16:11:12;23.90;;;3.08;;
45476;SDS011;31958;51.756;-2.556;2023-03-30T16:13:40;28.15;;;4.00;;
45476;SDS011;31958;51.756;-2.556;2023-03-30T16:16:07;25.48;;;4.15;;
45476;SDS011;31958;51.756;-2.556;2023-03-30T16:18:35;26.80;;;4.30;;
45476;SDS011;31958;51.756;-2.556;2023-03-30T16:21:00;24.77;;;3.33;;
45476;SDS011;31958;51.756;-2.556;2023-03-30T16:23:26;18.17;;;3.28;;
45476;SDS011;31958;51.756;-2.556;2023-03-30T16:25:51;19.60;;;3.70;;
45476;SDS011;31958;51.756;-2.556;2023-03-30T16:28:17;22.63;;;3.42;;
45476;SDS011;31958;51.756;-2.556;2023-03-30T16:30:43;17.00;;;2.78;;
45476;SDS011;31958;51.756;-2.556;2023-03-30T16:33:10;17.50;;;3.80;;
45476;SDS011;31958;51.756;-2.556;2023-03-30T16:35:36;17.92;;;2.63;;
45476;SDS011;31958;51.756;-2.556;2023-03-30T16:38:01;17.38;;;2.70;;
45476;SDS011;31958;51.756;-2.556;2023-03-30T16:40:29;20.20;;;2.95;;
45476;SDS011;31958;51.756;-2.556;2023-03-30T16:42:56;14.30;;;2.70;;
45476;SDS011;31958;51.756;-2.556;2023-03-30T16:45:22;15.80;;;3.00;;
45476;SDS011;31958;51.756;-2.556;2023-03-30T16:47:47;13.35;;;2.72;;
45476;SDS011;31958;51.756;-2.556;2023-03-30T16:50:20;17.25;;;2.58;;
45476;SDS011;31958;51.756;-2.556;2023-03-30T16:52:46;18.23;;;2.92;;
45476;SDS011;31958;51.756;-2.556;2023-03-30T16:55:12;14.82;;;2.60;;
45476;SDS011;31958;51.756;-2.556;2023-03-30T16:57:38;15.95;;;2.40;;
45476;SDS011;31958;51.756;-2.556;2023-03-30T17:00:10;19.15;;;3.25;;
45476;SDS011;31958;51.756;-2.556;2023-03-30T17:02:39;19.80;;;3.38;;
45476;SDS011;31958;51.756;-2.556;2023-03-30T17:05:04;20.02;;;3.28;;
45476;SDS011;31958;51.756;-2.556;2023-03-30T17:07:30;17.73;;;2.80;;
45476;SDS011;31958;51.756;-2.556;2023-03-30T17:09:55;20.15;;;3.00;;
45476;SDS011;31958;51.756;-2.556;2023-03-30T17:12:21;13.10;;;2.50;;
45476;SDS011;31958;51.756;-2.556;2023-03-30T17:14:47;18.70;;;2.80;;
45476;SDS011;31958;51.756;-2.556;2023-03-30T17:17:12;17.63;;;2.95;;
45476;SDS011;31958;51.756;-2.556;2023-03-30T17:19:38;13.73;;;2.92;;
45476;SDS011;31958;51.756;-2.556;2023-03-30T17:22:03;14.55;;;2.63;;
45476;SDS011;31958;51.756;-2.556;2023-03-30T17:24:28;20.27;;;3.47;;
45476;SDS011;31958;51.756;-2.556;2023-03-30T17:26:54;13.93;;;2.60;;
45476;SDS011;31958;51.756;-2.556;2023-03-30T17:29:20;17.20;;;2.90;;
45476;SDS011;31958;51.756;-2.556;2023-03-30T17:31:45;21.38;;;2.63;;
45476;SDS011;31958;51.756;-2.556;2023-03-30T17:34:11;13.38;;;3.00;;